.
WxDataArchive / Data Records for 2008-09-19
2008-09-18 September 2008 2008-09-20

Data Records for Friday, 19 September 2008

Time	Temp	Chill	HIndex	Humid	Dewpt	 Wind 	HiWind	WindDir	Rain 	Barom 
-----	----	-----	------	-----	-----	------	------	-------	-----	----- 
00:00	51.7	51.7	51.7	83	46.7	0	0	---	0.00	30.269 
00:05	51.6	51.6	51.6	83	46.6	0	0	---	0.00	30.267 
00:10	51.4	51.4	51.4	84	46.7	0	0	---	0.00	30.266 
00:15	51.3	51.3	51.3	84	46.6	0	0	---	0.00	30.268 
00:20	51.3	51.3	51.3	85	46.9	0	0	---	0.00	30.267 
00:25	51.1	51.1	51.1	85	46.7	0	0	---	0.00	30.262 
00:30	51.1	51.1	51.1	86	47.1	0	0	---	0.00	30.260 
00:35	51.0	51.0	51.0	86	47.0	0	0	---	0.00	30.261 
00:40	51.0	51.0	51.0	86	47.0	0	0	---	0.00	30.261 
00:45	50.8	50.8	50.8	86	46.8	0	0	---	0.00	30.260 
00:50	50.8	50.8	50.8	86	46.8	0	0	---	0.00	30.260 
00:55	50.7	50.7	50.7	86	46.7	0	0	---	0.00	30.259 
01:00	50.7	50.7	50.7	87	47.0	0	0	---	0.00	30.258 
01:05	50.7	50.7	50.7	87	47.0	0	0	---	0.00	30.255 
01:10	50.8	50.8	50.8	87	47.1	0	0	---	0.00	30.254 
01:15	50.8	50.8	50.8	87	47.1	0	0	---	0.00	30.254 
01:20	50.7	50.7	50.7	87	47.0	0	0	---	0.00	30.255 
01:25	50.5	50.5	50.5	87	46.8	0	0	---	0.00	30.255 
01:30	50.4	50.4	50.4	88	47.0	0	0	---	0.00	30.256 
01:35	50.2	50.2	50.2	88	46.8	0	0	---	0.00	30.256 
01:40	50.1	50.1	50.1	88	46.7	0	0	---	0.00	30.255 
01:45	49.8	49.8	49.8	88	46.4	0	0	---	0.00	30.254 
01:50	49.6	49.6	49.6	88	46.2	0	0	---	0.00	30.254 
01:55	49.4	49.4	49.4	88	46.0	0	0	---	0.00	30.253 
02:00	49.2	49.2	49.2	89	46.1	0	0	---	0.00	30.252 
02:05	49.1	49.1	49.1	89	46.0	0	0	---	0.00	30.252 
02:10	48.9	48.9	48.9	89	45.8	0	0	---	0.00	30.252 
02:15	48.8	48.8	48.8	90	46.0	0	0	---	0.00	30.250 
02:20	48.6	48.6	48.6	90	45.8	0	0	---	0.00	30.249 
02:25	48.5	48.5	48.5	91	46.0	0	0	---	0.00	30.248 
02:30	48.3	48.3	48.3	91	45.8	0	0	---	0.00	30.249 
02:35	48.3	48.3	48.3	91	45.8	0	0	---	0.00	30.249 
02:40	48.2	48.2	48.2	91	45.7	0	0	---	0.00	30.248 
02:45	48.2	48.2	48.2	92	46.0	0	0	---	0.00	30.249 
02:50	48.0	48.0	48.0	92	45.8	0	0	---	0.00	30.248 
02:55	48.0	48.0	48.0	92	45.8	0	0	---	0.00	30.248 
03:00	47.9	47.9	47.9	92	45.7	0	0	---	0.00	30.250 
03:05	47.9	47.9	47.9	92	45.7	0	0	---	0.00	30.253 
03:10	47.9	47.9	47.9	93	46.0	0	0	---	0.00	30.253 
03:15	47.7	47.7	47.7	93	45.8	0	0	---	0.00	30.253 
03:20	47.6	47.6	47.6	93	45.7	0	0	---	0.00	30.253 
03:25	47.4	47.4	47.4	93	45.5	0	0	---	0.00	30.252 
03:30	47.4	47.4	47.4	93	45.5	0	0	---	0.00	30.250 
03:35	47.3	47.3	47.3	93	45.4	0	0	---	0.00	30.250 
03:40	47.3	47.3	47.3	93	45.4	0	0	---	0.00	30.248 
03:45	47.1	47.1	47.1	93	45.2	0	0	---	0.00	30.249 
03:50	47.0	47.0	47.0	93	45.1	0	0	---	0.00	30.246 
03:55	46.8	46.8	46.8	93	44.9	0	0	---	0.00	30.245 
04:00	46.7	46.7	46.7	93	44.8	0	0	---	0.00	30.248 
04:05	46.5	46.5	46.5	93	44.6	0	0	---	0.00	30.247 
04:10	46.5	46.5	46.5	93	44.6	0	0	---	0.00	30.248 
04:15	46.4	46.4	46.4	93	44.5	0	0	---	0.00	30.249 
04:20	46.4	46.4	46.4	94	44.8	0	0	---	0.00	30.249 
04:25	46.4	46.4	46.4	94	44.8	0	0	---	0.00	30.249 
04:30	46.5	46.5	46.5	94	44.9	0	0	---	0.00	30.249 
04:35	46.5	46.5	46.5	94	44.9	0	0	---	0.00	30.248 
04:40	46.5	46.5	46.5	94	44.9	0	0	---	0.00	30.248 
04:45	46.5	46.5	46.5	94	44.9	0	0	---	0.00	30.249 
04:50	46.5	46.5	46.5	94	44.9	0	0	---	0.00	30.251 
04:55	46.5	46.5	46.5	94	44.9	0	0	---	0.00	30.253 
05:00	46.5	46.5	46.5	95	45.1	0	0	---	0.00	30.253 
05:05	46.7	46.7	46.7	95	45.3	0	0	---	0.00	30.256 
05:10	46.7	46.7	46.7	95	45.3	0	0	---	0.00	30.255 
05:15	46.8	46.8	46.8	95	45.4	0	0	---	0.00	30.256 
05:20	47.0	47.0	47.0	95	45.6	0	0	---	0.00	30.257 
05:25	47.1	47.1	47.1	95	45.7	0	0	---	0.00	30.256 
05:30	47.1	47.1	47.1	95	45.7	0	0	---	0.00	30.253 
05:35	47.1	47.1	47.1	95	45.7	0	0	---	0.00	30.251 
05:40	47.1	47.1	47.1	95	45.7	0	0	---	0.00	30.249 
05:45	47.1	47.1	47.1	95	45.7	0	0	---	0.00	30.250 
05:50	47.0	47.0	47.0	95	45.6	0	0	---	0.00	30.253 
05:55	47.1	47.1	47.1	95	45.7	0	0	---	0.00	30.254 
06:00	47.1	47.1	47.1	95	45.7	0	0	---	0.00	30.253 
06:05	47.1	47.1	47.1	95	45.7	0	0	---	0.00	30.255 
06:10	47.0	47.0	47.0	95	45.6	0	0	---	0.00	30.255 
06:15	47.0	47.0	47.0	95	45.6	0	0	---	0.00	30.255 
06:20	47.0	47.0	47.0	96	45.9	0	0	---	0.00	30.257 
06:25	47.0	47.0	47.0	96	45.9	0	0	---	0.00	30.259 
06:30	47.1	47.1	47.1	96	46.0	0	0	---	0.00	30.261 
06:35	47.1	47.1	47.1	96	46.0	0	0	---	0.00	30.261 
06:40	47.3	47.3	47.3	96	46.2	0	0	---	0.00	30.262 
06:45	47.3	47.3	47.3	96	46.2	0	0	---	0.00	30.262 
06:50	47.4	47.4	47.4	96	46.3	0	0	---	0.00	30.262 
06:55	47.6	47.6	47.6	96	46.5	0	0	---	0.00	30.262 
07:00	47.7	47.7	47.7	96	46.6	0	0	---	0.00	30.263 
07:05	48.2	48.2	48.2	96	47.1	0	1	90	0.00	30.265 
07:10	48.6	48.6	48.6	96	47.5	0	1	90	0.00	30.263 
07:15	49.1	49.1	49.1	96	48.0	0	1	90	0.00	30.265 
07:20	49.4	49.4	49.4	96	48.3	0	1	90	0.00	30.265 
07:25	49.5	49.5	49.5	96	48.4	0	1	90	0.00	30.266 
07:30	49.8	49.8	49.8	96	48.7	0	1	90	0.00	30.268 
07:35	50.1	50.1	50.1	96	49.0	0	1	90	0.00	30.269 
07:40	50.4	50.4	50.4	96	49.3	0	1	90	0.00	30.270 
07:45	50.8	50.8	50.8	96	49.7	0	1	90	0.00	30.265 
07:50	51.3	51.3	51.3	95	49.9	0	3	90	0.00	30.264 
07:55	51.6	51.6	51.6	94	49.9	0	3	90	0.00	30.263 
08:00	52.0	52.0	52.0	93	50.0	0	2	90	0.00	30.267 
08:05	52.5	52.5	52.5	92	50.2	0	2	90	0.00	30.267 
08:10	52.8	52.8	52.8	91	50.2	0	2	90	0.00	30.269 
08:15	53.1	53.1	53.1	90	50.2	0	2	90	0.00	30.270 
08:20	53.5	53.5	53.5	88	50.0	0	1	90	0.00	30.271 
08:25	53.8	53.8	53.8	88	50.3	0	2	90	0.00	30.268 
08:30	54.2	54.2	54.2	86	50.1	0	2	90	0.00	30.267 
08:35	54.5	54.5	54.5	85	50.1	1	2	90	0.00	30.266 
08:40	55.0	55.0	55.0	84	50.3	0	2	90	0.00	30.264 
08:45	55.3	55.3	55.3	83	50.2	0	2	90	0.00	30.263 
08:50	56.0	56.0	56.0	82	50.6	0	2	90	0.00	30.262 
08:55	56.7	56.7	56.7	80	50.6	0	2	90	0.00	30.261 
09:00	57.8	57.8	57.8	78	51.0	0	2	90	0.00	30.260 
09:05	58.7	58.7	58.7	74	50.4	1	3	90	0.00	30.261 
09:10	59.5	59.5	59.5	73	50.8	1	3	90	0.00	30.264 
09:15	60.4	60.4	60.4	71	50.9	0	1	90	0.00	30.261 
09:20	61.2	61.2	61.2	70	51.3	1	2	90	0.00	30.259 
09:25	61.8	61.8	61.8	69	51.5	0	1	90	0.00	30.256 
09:30	62.4	62.4	62.4	68	51.7	0	1	90	0.00	30.257 
09:35	63.1	63.1	63.1	69	52.8	0	2	90	0.00	30.256 
09:40	63.9	63.9	63.9	68	53.1	0	2	90	0.00	30.256 
09:45	64.5	64.5	64.5	66	52.9	1	2	90	0.00	30.255 
09:50	65.0	65.0	65.0	66	53.4	1	3	90	0.00	30.254 
09:55	65.3	65.3	65.3	64	52.8	1	3	90	0.00	30.254 
10:00	65.6	65.6	65.6	63	52.7	1	2	90	0.00	30.252 
10:05	66.1	66.1	66.1	64	53.6	0	2	90	0.00	30.253 
10:10	66.6	66.6	66.6	62	53.2	0	2	112	0.00	30.252 
10:15	67.1	67.1	67.1	62	53.6	1	3	112	0.00	30.252 
10:20	67.4	67.4	67.4	60	53.0	1	3	112	0.00	30.249 
10:25	67.9	67.9	67.9	60	53.5	1	3	112	0.00	30.245 
10:30	68.3	68.3	68.3	57	52.5	1	3	112	0.00	30.245 
10:35	68.6	68.6	68.6	59	53.7	1	3	112	0.00	30.246 
10:40	68.8	68.8	68.8	60	54.3	0	1	202	0.00	30.244 
10:45	69.1	69.1	69.1	58	53.7	0	2	202	0.00	30.242 
10:50	69.6	69.6	69.6	58	54.2	0	1	202	0.00	30.239 
10:55	70.4	70.4	70.4	60	55.8	0	2	202	0.00	30.237 
11:00	70.8	70.8	70.8	54	53.3	1	4	135	0.00	30.236 
11:05	70.8	70.8	70.8	56	54.3	0	3	112	0.00	30.237 
11:10	70.9	70.9	70.9	56	54.4	0	2	112	0.00	30.237 
11:15	71.5	71.5	71.5	53	53.5	0	1	112	0.00	30.236 
11:20	72.0	72.0	72.0	52	53.4	0	2	112	0.00	30.234 
11:25	72.1	72.1	72.1	54	54.5	0	2	112	0.00	30.232 
11:30	72.3	72.3	72.3	55	55.2	0	2	112	0.00	30.228 
11:35	72.5	72.5	72.5	52	53.9	0	3	112	0.00	30.226 
11:40	72.8	72.8	72.8	50	53.1	0	2	270	0.00	30.225 
11:45	73.2	73.2	73.2	49	52.9	0	2	270	0.00	30.222 
11:50	73.0	73.0	73.0	47	51.6	1	3	270	0.00	30.221 
11:55	73.0	73.0	73.0	52	54.3	0	1	270	0.00	30.220 
12:00	73.0	73.0	73.0	48	52.1	1	2	270	0.00	30.219 
12:05	73.0	73.0	73.0	50	53.2	1	3	270	0.00	30.218 
12:10	73.5	73.5	73.5	51	54.2	0	1	270	0.00	30.212 
12:15	73.9	73.9	73.9	47	52.4	0	2	270	0.00	30.208 
12:20	74.2	74.2	74.2	51	54.9	1	2	270	0.00	30.206 
12:25	74.6	74.6	74.6	46	52.4	0	2	270	0.00	30.204 
12:30	74.6	74.6	74.6	45	51.8	0	1	270	0.00	30.203 
12:35	74.7	74.7	74.7	45	51.9	0	2	270	0.00	30.203 
12:40	74.7	74.7	74.7	44	51.3	0	2	270	0.00	30.202 
12:45	75.1	75.1	77.6	44	51.7	1	3	180	0.00	30.202 
12:50	75.1	75.1	77.7	46	52.9	1	2	180	0.00	30.200 
12:55	75.1	75.1	77.6	44	51.7	0	2	180	0.00	30.199 
13:00	75.4	75.4	77.8	46	53.2	0	1	180	0.00	30.193 
13:05	75.4	75.4	77.6	40	49.4	1	3	135	0.00	30.192 
13:10	75.4	75.4	77.7	42	50.7	0	1	135	0.00	30.190 
13:15	75.4	75.4	77.7	45	52.6	0	1	135	0.00	30.189 
13:20	75.4	75.4	77.7	42	50.7	0	1	135	0.00	30.185 
13:25	75.4	75.4	77.6	39	48.7	0	1	135	0.00	30.185 
13:30	75.4	75.4	77.6	39	48.7	0	1	135	0.00	30.182 
13:35	75.6	75.6	77.8	43	51.5	0	1	135	0.00	30.179 
13:40	76.0	76.0	77.8	39	49.2	1	2	180	0.00	30.175 
13:45	76.3	76.3	78.0	41	50.8	0	2	180	0.00	30.173 
13:50	76.8	76.8	78.2	42	51.9	0	1	225	0.00	30.172 
13:55	77.2	77.2	78.2	38	49.6	0	2	225	0.00	30.171 
14:00	77.4	77.4	78.3	37	49.1	0	4	112	0.00	30.170 
14:05	76.8	76.8	77.8	34	46.3	1	3	112	0.00	30.170 
14:10	76.5	76.5	78.1	42	51.7	1	4	90	0.00	30.169 
14:15	76.5	76.5	78.0	39	49.7	0	1	90	0.00	30.167 
14:20	76.7	76.7	78.1	39	49.9	0	1	90	0.00	30.165 
14:25	76.8	76.8	78.0	38	49.2	0	1	90	0.00	30.162 
14:30	77.2	77.2	78.2	38	49.6	0	2	90	0.00	30.160 
14:35	77.4	77.4	78.2	36	48.3	0	2	90	0.00	30.158 
14:40	77.6	77.6	78.2	34	47.0	0	2	90	0.00	30.154 
14:45	77.6	77.6	78.1	32	45.4	0	1	68	0.00	30.153 
14:50	77.2	77.2	78.1	35	47.4	0	0	---	0.00	30.153 
14:55	77.2	77.2	77.9	32	45.0	0	1	68	0.00	30.152 
15:00	77.4	77.4	78.1	35	47.6	0	1	68	0.00	30.150 
15:05	77.4	77.4	78.1	34	46.8	0	1	68	0.00	30.148 
15:10	77.7	77.7	78.3	35	47.8	0	1	68	0.00	30.148 
15:15	77.7	77.7	78.1	32	45.5	0	1	68	0.00	30.145 
15:20	77.9	77.9	78.1	31	44.8	0	2	68	0.00	30.145 
15:25	77.6	77.6	78.1	33	46.2	0	2	68	0.00	30.145 
15:30	77.4	77.4	78.0	33	46.0	0	1	68	0.00	30.146 
15:35	77.4	77.4	78.0	32	45.2	0	0	---	0.00	30.147 
15:40	77.4	77.4	78.1	34	46.8	0	0	---	0.00	30.147 
15:45	77.2	77.2	77.9	32	45.0	0	1	68	0.00	30.148 
15:50	77.0	77.0	77.8	32	44.9	0	1	68	0.00	30.148 
15:55	76.8	76.8	78.0	37	48.5	0	1	68	0.00	30.146 
16:00	76.7	76.7	77.9	36	47.7	0	0	---	0.00	30.146 
16:05	76.5	76.5	77.7	34	46.0	0	0	---	0.00	30.144 
16:10	76.5	76.5	77.8	36	47.5	0	0	---	0.00	30.144 
16:15	76.3	76.3	77.6	33	45.1	0	0	---	0.00	30.146 
16:20	76.5	76.5	78.0	39	49.7	0	1	68	0.00	30.144 
16:25	76.3	76.3	78.0	41	50.8	0	0	---	0.00	30.145 
16:30	76.1	76.1	77.9	40	50.0	0	2	68	0.00	30.143 
16:35	76.0	76.0	77.9	41	50.6	0	0	---	0.00	30.143 
16:40	75.6	75.6	77.7	42	50.9	0	0	---	0.00	30.144 
16:45	75.4	75.4	77.7	43	51.3	0	1	68	0.00	30.143 
16:50	75.3	75.3	77.7	44	51.9	0	0	---	0.00	30.143 
16:55	75.1	75.1	77.6	43	51.1	0	0	---	0.00	30.143 
17:00	75.1	75.1	77.6	45	52.3	0	0	---	0.00	30.143 
17:05	75.1	75.1	77.7	46	52.9	0	0	---	0.00	30.142 
17:10	74.9	74.9	74.9	44	51.5	0	0	---	0.00	30.143 
17:15	74.7	74.7	74.7	45	51.9	0	0	---	0.00	30.143 
17:20	74.6	74.6	74.6	45	51.8	0	0	---	0.00	30.143 
17:25	74.2	74.2	74.2	47	52.7	0	0	---	0.00	30.145 
17:30	73.9	73.9	73.9	47	52.4	0	0	---	0.00	30.145 
17:35	73.7	73.7	73.7	47	52.2	0	0	---	0.00	30.144 
17:40	73.3	73.3	73.3	48	52.4	0	0	---	0.00	30.143 
17:45	73.2	73.2	73.2	49	52.9	0	0	---	0.00	30.144 
17:50	72.8	72.8	72.8	50	53.1	0	0	---	0.00	30.143 
17:55	72.7	72.7	72.7	51	53.5	0	0	---	0.00	30.143 
18:00	72.5	72.5	72.5	51	53.3	0	0	---	0.00	30.144 
18:05	72.1	72.1	72.1	52	53.5	0	0	---	0.00	30.144 
18:10	72.0	72.0	72.0	54	54.4	0	0	---	0.00	30.144 
18:15	71.6	71.6	71.6	54	54.1	0	0	---	0.00	30.144 
18:20	71.3	71.3	71.3	55	54.3	0	0	---	0.00	30.146 
18:25	70.8	70.8	70.8	56	54.3	0	0	---	0.00	30.146 
18:30	70.3	70.3	70.3	57	54.3	0	0	---	0.00	30.145 
18:35	69.8	69.8	69.8	57	53.9	0	0	---	0.00	30.145 
18:40	69.3	69.3	69.3	59	54.3	0	0	---	0.00	30.147 
18:45	68.6	68.6	68.6	62	55.0	0	0	---	0.00	30.147 
18:50	68.1	68.1	68.1	64	55.5	0	0	---	0.00	30.145 
18:55	67.4	67.4	67.4	65	55.2	0	0	---	0.00	30.144 
19:00	66.9	66.9	66.9	65	54.7	0	0	---	0.00	30.144 
19:05	66.4	66.4	66.4	66	54.7	0	0	---	0.00	30.139 
19:10	66.0	66.0	66.0	66	54.3	0	0	---	0.00	30.139 
19:15	65.6	65.6	65.6	68	54.7	0	0	---	0.00	30.138 
19:20	65.2	65.2	65.2	69	54.8	0	0	---	0.00	30.141 
19:25	64.7	64.7	64.7	69	54.3	0	0	---	0.00	30.144 
19:30	64.3	64.3	64.3	70	54.3	0	0	---	0.00	30.144 
19:35	63.9	63.9	63.9	71	54.3	0	0	---	0.00	30.146 
19:40	63.5	63.5	63.5	73	54.7	0	0	---	0.00	30.147 
19:45	63.1	63.1	63.1	74	54.7	0	0	---	0.00	30.149 
19:50	62.7	62.7	62.7	76	55.0	0	0	---	0.00	30.150 
19:55	62.4	62.4	62.4	77	55.1	0	0	---	0.00	30.150 
20:00	62.3	62.3	62.3	78	55.3	0	0	---	0.00	30.149 
20:05	62.0	62.0	62.0	79	55.4	0	0	---	0.00	30.145 
20:10	61.6	61.6	61.6	80	55.4	0	0	---	0.00	30.145 
20:15	61.5	61.5	61.5	80	55.3	0	0	---	0.00	30.145 
20:20	61.2	61.2	61.2	80	55.0	0	0	---	0.00	30.148 
20:25	61.0	61.0	61.0	81	55.1	0	0	---	0.00	30.148 
20:30	60.9	60.9	60.9	81	55.0	0	0	---	0.00	30.148 
20:35	60.7	60.7	60.7	82	55.2	0	0	---	0.00	30.149 
20:40	60.5	60.5	60.5	82	55.0	0	0	---	0.00	30.148 
20:45	60.4	60.4	60.4	82	54.9	0	0	---	0.00	30.148 
20:50	60.4	60.4	60.4	83	55.2	0	0	---	0.00	30.150 
20:55	60.2	60.2	60.2	84	55.3	0	0	---	0.00	30.148 
21:00	60.1	60.1	60.1	84	55.2	0	0	---	0.00	30.146 
21:05	59.9	59.9	59.9	85	55.4	0	0	---	0.00	30.140 
21:10	59.8	59.8	59.8	85	55.3	0	0	---	0.00	30.140 
21:15	59.6	59.6	59.6	85	55.1	0	0	---	0.00	30.140 
21:20	59.5	59.5	59.5	86	55.3	0	0	---	0.00	30.140 
21:25	59.3	59.3	59.3	86	55.1	0	0	---	0.00	30.142 
21:30	59.2	59.2	59.2	86	55.0	0	0	---	0.00	30.141 
21:35	58.9	58.9	58.9	87	55.0	0	0	---	0.00	30.141 
21:40	58.7	58.7	58.7	87	54.8	0	0	---	0.00	30.141 
21:45	58.4	58.4	58.4	88	54.9	0	0	---	0.00	30.140 
21:50	58.1	58.1	58.1	88	54.6	0	0	---	0.00	30.141 
21:55	58.0	58.0	58.0	88	54.5	0	0	---	0.00	30.141 
22:00	57.8	57.8	57.8	89	54.6	0	0	---	0.00	30.141 
22:05	57.6	57.6	57.6	89	54.4	0	0	---	0.00	30.138 
22:10	57.5	57.5	57.5	89	54.3	0	0	---	0.00	30.137 
22:15	57.2	57.2	57.2	89	54.0	0	0	---	0.00	30.137 
22:20	57.2	57.2	57.2	89	54.0	0	0	---	0.00	30.137 
22:25	57.0	57.0	57.0	90	54.1	0	0	---	0.00	30.137 
22:30	56.9	56.9	56.9	90	54.0	0	0	---	0.00	30.138 
22:35	56.7	56.7	56.7	90	53.8	0	0	---	0.00	30.138 
22:40	56.7	56.7	56.7	91	54.1	0	0	---	0.00	30.137 
22:45	56.6	56.6	56.6	91	54.0	0	0	---	0.00	30.135 
22:50	56.5	56.5	56.5	91	53.9	0	0	---	0.00	30.135 
22:55	56.5	56.5	56.5	91	53.9	0	0	---	0.00	30.135 
23:00	56.3	56.3	56.3	91	53.7	0	0	---	0.00	30.137 
23:05	56.2	56.2	56.2	92	53.9	0	0	---	0.00	30.136 
23:10	56.2	56.2	56.2	92	53.9	0	0	---	0.00	30.136 
23:15	56.0	56.0	56.0	92	53.7	0	0	---	0.00	30.136 
23:20	56.0	56.0	56.0	92	53.7	0	0	---	0.00	30.136 
23:25	55.9	55.9	55.9	92	53.6	0	0	---	0.00	30.135 
23:30	55.7	55.7	55.7	92	53.4	0	0	---	0.00	30.133 
23:35	55.6	55.6	55.6	92	53.3	0	0	---	0.00	30.131 
23:40	55.6	55.6	55.6	92	53.3	0	0	---	0.00	30.130 
23:45	55.4	55.4	55.4	92	53.1	0	0	---	0.00	30.130 
23:50	55.3	55.3	55.3	92	53.0	0	0	---	0.00	30.128 
23:55	55.3	55.3	55.3	92	53.0	0	0	---	0.00	30.126 

CoCoRaHS
IN-AL-39
A2 Web Hosting
Creative Commons License
GoDaddy
Look for:

loaded 2017-12-12 17:14:18 • last modified 2010-11-18 10:43:29
Privacy PolicyDisclaimer
• wx.awcolley.com is powered by PmWiki v.2002016 •
• all content (unless otherwise noted) © 2017 A W Colley